KRNH/RNH METAR and TAF weather

Enter ICAO airport designator
Station Type Date Time Source
KRNH METAR 2020/02/24 07:35 UTC NOAA

KRNH 240735Z AUTO 00000KT 10SM CLR M06/M08 A2997 RMK AO2 T10631077


Station Type Date Time Source
KRNH Decoded METAR 2020/02/24 07:35 UTC NOAA

New Richmond, New Richmond Municipal Airport, WI, United States (KRNH) 45-08-54N 092-32-17W
Feb 24, 2020 - 02:35 AM EST / 2020.02.24 0735 UTC
Wind: Calm:0
Visibility: 10 mile(s):0
Sky conditions: clear
Temperature: 20.7 F (-6.3 C)
Dew Point: 18.1 F (-7.7 C)
Relative Humidity: 89%
Pressure (altimeter): 29.97 in. Hg (1014 hPa)
ob: KRNH 240735Z AUTO 00000KT 10SM CLR M06/M08 A2997 RMK AO2 T10631077
cycle: 7

Station Type Date Time Source
KRNH TAF 2020/02/24 06:24 UTC NOAA

TAF KRNH 240521Z 2406/2506 29004KT P6SM FEW250
FM241600 02005KT P6SM BKN150

Example: see airport list